sensor_id;sensor_type;location;lat;lon;timestamp;pressure;altitude;pressure_sealevel;temperature;humidity
21431;BME280;10876;49.038;10.608;2022-09-09T03:17:44;101896.09;;;12.56;100.00
21431;BME280;10876;49.038;10.608;2022-09-09T03:20:11;101887.94;;;12.61;100.00
21431;BME280;10876;49.038;10.608;2022-09-09T03:22:38;101881.25;;;12.57;100.00
21431;BME280;10876;49.038;10.608;2022-09-09T03:25:06;101907.50;;;12.77;100.00
21431;BME280;10876;49.038;10.608;2022-09-09T03:27:33;101890.69;;;12.61;100.00
21431;BME280;10876;49.038;10.608;2022-09-09T03:29:59;101862.69;;;12.36;100.00
21431;BME280;10876;49.038;10.608;2022-09-09T03:32:29;101825.97;;;12.13;100.00
21431;BME280;10876;49.038;10.608;2022-09-09T03:34:58;101821.75;;;12.23;100.00
21431;BME280;10876;49.038;10.608;2022-09-09T03:37:24;101809.94;;;12.22;100.00
21431;BME280;10876;49.038;10.608;2022-09-09T03:39:51;101802.91;;;12.14;100.00
21431;BME280;10876;49.038;10.608;2022-09-09T03:42:19;101792.41;;;12.11;100.00
21431;BME280;10876;49.038;10.608;2022-09-09T03:44:47;101761.97;;;12.01;100.00
21431;BME280;10876;49.038;10.608;2022-09-09T03:47:16;101755.47;;;12.07;100.00
21431;BME280;10876;49.038;10.608;2022-09-09T03:49:43;101775.69;;;12.30;100.00
21431;BME280;10876;49.038;10.608;2022-09-09T03:52:11;101782.38;;;12.34;100.00
21431;BME280;10876;49.038;10.608;2022-09-09T03:54:41;101807.19;;;12.51;100.00
21431;BME280;10876;49.038;10.608;2022-09-09T03:57:08;101811.41;;;12.58;100.00
21431;BME280;10876;49.038;10.608;2022-09-09T03:59:36;101806.81;;;12.47;100.00
21431;BME280;10876;49.038;10.608;2022-09-09T04:02:03;101818.78;;;12.41;100.00
21431;BME280;10876;49.038;10.608;2022-09-09T04:04:31;101802.19;;;12.36;100.00
21431;BME280;10876;49.038;10.608;2022-09-09T04:06:57;101809.56;;;12.47;100.00
21431;BME280;10876;49.038;10.608;2022-09-09T04:09:25;101796.25;;;12.39;100.00
21431;BME280;10876;49.038;10.608;2022-09-09T04:11:52;101779.44;;;12.24;100.00
21431;BME280;10876;49.038;10.608;2022-09-09T04:14:20;101768.69;;;12.22;100.00
21431;BME280;10876;49.038;10.608;2022-09-09T04:16:47;101733.03;;;12.10;100.00
21431;BME280;10876;49.038;10.608;2022-09-09T04:19:14;101740.03;;;12.18;100.00
21431;BME280;10876;49.038;10.608;2022-09-09T04:21:41;101747.22;;;12.19;100.00
21431;BME280;10876;49.038;10.608;2022-09-09T04:24:08;101755.19;;;12.21;100.00
21431;BME280;10876;49.038;10.608;2022-09-09T04:26:37;101761.28;;;12.23;100.00
21431;BME280;10876;49.038;10.608;2022-09-09T04:29:04;101776.19;;;12.27;100.00
21431;BME280;10876;49.038;10.608;2022-09-09T04:31:32;101798.88;;;12.34;100.00
21431;BME280;10876;49.038;10.608;2022-09-09T04:33:59;101813.19;;;12.36;100.00
21431;BME280;10876;49.038;10.608;2022-09-09T04:36:30;101830.28;;;12.38;100.00
21431;BME280;10876;49.038;10.608;2022-09-09T04:38:57;101831.28;;;12.32;100.00
21431;BME280;10876;49.038;10.608;2022-09-09T04:41:24;101817.25;;;12.16;100.00
21431;BME280;10876;49.038;10.608;2022-09-09T04:43:52;101804.94;;;12.07;100.00
21431;BME280;10876;49.038;10.608;2022-09-09T04:46:19;101804.09;;;12.07;100.00
21431;BME280;10876;49.038;10.608;2022-09-09T04:48:46;101780.63;;;11.99;100.00
21431;BME280;10876;49.038;10.608;2022-09-09T04:51:14;101752.53;;;11.97;100.00
21431;BME280;10876;49.038;10.608;2022-09-09T04:53:40;101772.81;;;12.08;100.00
21431;BME280;10876;49.038;10.608;2022-09-09T04:56:09;101786.84;;;12.23;100.00
21431;BME280;10876;49.038;10.608;2022-09-09T04:58:36;101812.63;;;12.34;100.00
21431;BME280;10876;49.038;10.608;2022-09-09T05:01:06;101832.53;;;12.41;100.00
21431;BME280;10876;49.038;10.608;2022-09-09T05:03:33;101864.44;;;12.54;100.00
21431;BME280;10876;49.038;10.608;2022-09-09T05:06:05;101886.75;;;12.57;100.00
21431;BME280;10876;49.038;10.608;2022-09-09T05:08:34;101905.03;;;12.63;100.00
21431;BME280;10876;49.038;10.608;2022-09-09T05:11:00;101911.13;;;12.66;100.00
21431;BME280;10876;49.038;10.608;2022-09-09T05:13:28;101924.13;;;12.70;100.00
21431;BME280;10876;49.038;10.608;2022-09-09T05:15:57;101946.00;;;12.77;100.00
21431;BME280;10876;49.038;10.608;2022-09-09T05:18:25;101952.19;;;12.84;100.00
21431;BME280;10876;49.038;10.608;2022-09-09T05:20:52;101951.63;;;12.70;100.00
21431;BME280;10876;49.038;10.608;2022-09-09T05:23:19;101913.78;;;12.60;100.00
21431;BME280;10876;49.038;10.608;2022-09-09T05:25:55;101921.03;;;12.67;100.00
21431;BME280;10876;49.038;10.608;2022-09-09T05:28:23;101932.34;;;12.82;100.00
21431;BME280;10876;49.038;10.608;2022-09-09T05:30:55;101922.47;;;12.69;100.00
21431;BME280;10876;49.038;10.608;2022-09-09T05:33:24;101917.69;;;12.65;100.00
21431;BME280;10876;49.038;10.608;2022-09-09T05:35:59;101915.63;;;12.72;100.00
21431;BME280;10876;49.038;10.608;2022-09-09T05:38:27;101928.91;;;12.75;100.00
21431;BME280;10876;49.038;10.608;2022-09-09T05:40:54;101912.63;;;12.73;100.00
21431;BME280;10876;49.038;10.608;2022-09-09T05:43:21;101931.00;;;12.84;100.00
21431;BME280;10876;49.038;10.608;2022-09-09T05:45:48;101938.53;;;12.89;100.00
21431;BME280;10876;49.038;10.608;2022-09-09T05:48:15;101962.06;;;12.97;100.00
21431;BME280;10876;49.038;10.608;2022-09-09T05:50:52;101974.09;;;13.07;100.00
21431;BME280;10876;49.038;10.608;2022-09-09T05:53:19;102014.59;;;13.24;100.00
21431;BME280;10876;49.038;10.608;2022-09-09T05:55:46;102029.66;;;13.33;100.00
21431;BME280;10876;49.038;10.608;2022-09-09T05:58:13;102068.31;;;13.38;100.00
21431;BME280;10876;49.038;10.608;2022-09-09T06:00:47;102082.84;;;13.50;100.00
21431;BME280;10876;49.038;10.608;2022-09-09T06:03:14;102123.34;;;13.79;100.00
21431;BME280;10876;49.038;10.608;2022-09-09T06:05:43;102165.81;;;13.94;100.00
21431;BME280;10876;49.038;10.608;2022-09-09T06:08:10;102198.91;;;14.11;100.00
21431;BME280;10876;49.038;10.608;2022-09-09T06:10:37;102183.59;;;14.04;100.00
21431;BME280;10876;49.038;10.608;2022-09-09T06:13:04;102189.81;;;14.11;100.00
21431;BME280;10876;49.038;10.608;2022-09-09T06:15:31;102194.91;;;14.19;100.00
21431;BME280;10876;49.038;10.608;2022-09-09T06:17:57;102194.75;;;14.26;100.00
21431;BME280;10876;49.038;10.608;2022-09-09T06:20:24;102189.31;;;14.48;100.00
21431;BME280;10876;49.038;10.608;2022-09-09T06:22:52;102279.19;;;14.89;100.00
21431;BME280;10876;49.038;10.608;2022-09-09T06:25:19;102378.63;;;15.62;100.00
21431;BME280;10876;49.038;10.608;2022-09-09T06:27:48;102460.19;;;16.15;100.00
21431;BME280;10876;49.038;10.608;2022-09-09T06:30:16;102516.06;;;16.34;100.00
21431;BME280;10876;49.038;10.608;2022-09-09T06:32:43;102539.34;;;16.77;100.00
21431;BME280;10876;49.038;10.608;2022-09-09T06:35:10;102544.00;;;16.93;100.00
21431;BME280;10876;49.038;10.608;2022-09-09T06:37:37;102385.63;;;16.03;100.00
21431;BME280;10876;49.038;10.608;2022-09-09T06:40:06;102253.66;;;15.38;100.00
21431;BME280;10876;49.038;10.608;2022-09-09T06:42:33;102177.00;;;15.06;100.00
21431;BME280;10876;49.038;10.608;2022-09-09T06:44:59;102111.09;;;14.93;100.00
21431;BME280;10876;49.038;10.608;2022-09-09T06:47:28;102054.41;;;14.85;100.00
21431;BME280;10876;49.038;10.608;2022-09-09T06:49:55;101974.38;;;14.63;100.00
21431;BME280;10876;49.038;10.608;2022-09-09T06:52:22;101921.56;;;14.54;100.00
21431;BME280;10876;49.038;10.608;2022-09-09T06:54:50;101976.41;;;14.95;100.00
21431;BME280;10876;49.038;10.608;2022-09-09T06:57:18;101952.44;;;15.00;100.00
21431;BME280;10876;49.038;10.608;2022-09-09T06:59:44;101919.44;;;15.16;100.00
21431;BME280;10876;49.038;10.608;2022-09-09T07:02:11;101951.06;;;15.62;100.00
21431;BME280;10876;49.038;10.608;2022-09-09T07:04:38;101945.19;;;15.86;100.00
21431;BME280;10876;49.038;10.608;2022-09-09T07:07:04;101959.31;;;16.37;100.00
21431;BME280;10876;49.038;10.608;2022-09-09T07:09:31;101990.84;;;16.88;100.00
21431;BME280;10876;49.038;10.608;2022-09-09T07:11:58;101967.34;;;17.06;100.00
21431;BME280;10876;49.038;10.608;2022-09-09T07:14:26;101915.81;;;17.16;100.00
21431;BME280;10876;49.038;10.608;2022-09-09T07:16:53;101906.41;;;17.37;100.00
21431;BME280;10876;49.038;10.608;2022-09-09T07:19:20;101837.34;;;17.61;100.00
21431;BME280;10876;49.038;10.608;2022-09-09T07:21:46;101749.44;;;17.72;100.00
21431;BME280;10876;49.038;10.608;2022-09-09T07:24:13;101621.06;;;17.66;100.00
21431;BME280;10876;49.038;10.608;2022-09-09T07:26:41;101533.63;;;17.84;100.00
21431;BME280;10876;49.038;10.608;2022-09-09T07:29:08;101430.53;;;17.72;100.00
21431;BME280;10876;49.038;10.608;2022-09-09T07:31:38;101412.44;;;18.09;100.00
21431;BME280;10876;49.038;10.608;2022-09-09T07:34:05;101354.69;;;18.35;100.00
21431;BME280;10876;49.038;10.608;2022-09-09T07:36:34;101334.13;;;18.55;100.00
21431;BME280;10876;49.038;10.608;2022-09-09T07:39:04;101242.59;;;18.50;100.00
21431;BME280;10876;49.038;10.608;2022-09-09T07:41:48;101224.75;;;18.88;100.00
21431;BME280;10876;49.038;10.608;2022-09-09T07:44:18;101171.28;;;19.10;100.00
21431;BME280;10876;49.038;10.608;2022-09-09T07:46:48;101009.94;;;18.79;100.00
21431;BME280;10876;49.038;10.608;2022-09-09T07:49:15;100980.44;;;19.20;100.00
21431;BME280;10876;49.038;10.608;2022-09-09T07:51:44;100897.28;;;19.23;100.00
21431;BME280;10876;49.038;10.608;2022-09-09T07:54:13;100831.13;;;19.34;100.00
21431;BME280;10876;49.038;10.608;2022-09-09T07:56:41;100788.84;;;19.46;100.00
21431;BME280;10876;49.038;10.608;2022-09-09T07:59:08;100782.00;;;19.74;100.00
21431;BME280;10876;49.038;10.608;2022-09-09T08:01:36;100687.94;;;19.94;100.00
21431;BME280;10876;49.038;10.608;2022-09-09T08:04:07;100600.88;;;19.85;100.00
21431;BME280;10876;49.038;10.608;2022-09-09T08:06:36;100470.78;;;19.90;100.00
21431;BME280;10876;49.038;10.608;2022-09-09T08:09:03;100462.75;;;20.06;100.00
21431;BME280;10876;49.038;10.608;2022-09-09T08:11:30;100380.19;;;19.63;100.00
21431;BME280;10876;49.038;10.608;2022-09-09T08:13:58;100364.78;;;20.21;100.00
21431;BME280;10876;49.038;10.608;2022-09-09T08:16:27;100300.84;;;20.34;100.00
21431;BME280;10876;49.038;10.608;2022-09-09T08:18:54;100242.59;;;20.29;100.00
21431;BME280;10876;49.038;10.608;2022-09-09T08:21:24;100203.97;;;20.48;100.00
21431;BME280;10876;49.038;10.608;2022-09-09T08:23:52;100130.50;;;20.61;100.00
21431;BME280;10876;49.038;10.608;2022-09-09T08:26:21;100045.84;;;20.41;100.00
21431;BME280;10876;49.038;10.608;2022-09-09T08:28:49;99976.16;;;20.50;100.00
21431;BME280;10876;49.038;10.608;2022-09-09T08:31:18;99943.56;;;20.51;100.00
21431;BME280;10876;49.038;10.608;2022-09-09T08:33:46;99889.03;;;20.13;100.00
21431;BME280;10876;49.038;10.608;2022-09-09T08:36:14;99846.00;;;20.59;100.00
21431;BME280;10876;49.038;10.608;2022-09-09T08:38:43;99830.69;;;20.78;100.00
21431;BME280;10876;49.038;10.608;2022-09-09T08:41:35;99769.81;;;20.92;100.00
21431;BME280;10876;49.038;10.608;2022-09-09T08:44:07;99677.38;;;20.74;100.00
21431;BME280;10876;49.038;10.608;2022-09-09T08:46:44;99623.84;;;20.81;100.00
21431;BME280;10876;49.038;10.608;2022-09-09T08:49:41;99586.66;;;21.52;100.00
21431;BME280;10876;49.038;10.608;2022-09-09T08:52:17;99472.88;;;20.91;100.00
21431;BME280;10876;49.038;10.608;2022-09-09T08:54:47;99446.69;;;21.11;100.00
21431;BME280;10876;49.038;10.608;2022-09-09T08:57:20;99407.03;;;20.99;100.00
21431;BME280;10876;49.038;10.608;2022-09-09T08:59:50;99426.75;;;21.84;100.00
21431;BME280;10876;49.038;10.608;2022-09-09T09:02:21;99398.44;;;22.04;100.00
21431;BME280;10876;49.038;10.608;2022-09-09T09:04:58;99364.38;;;22.41;100.00
21431;BME280;10876;49.038;10.608;2022-09-09T09:07:44;99288.47;;;22.32;100.00
21431;BME280;10876;49.038;10.608;2022-09-09T09:10:25;99225.94;;;22.40;100.00
21431;BME280;10876;49.038;10.608;2022-09-09T09:12:58;99178.16;;;22.45;100.00
21431;BME280;10876;49.038;10.608;2022-09-09T09:15:32;99092.34;;;22.76;100.00
21431;BME280;10876;49.038;10.608;2022-09-09T09:18:02;99042.69;;;23.00;100.00
21431;BME280;10876;49.038;10.608;2022-09-09T09:20:33;98994.91;;;23.19;100.00
21431;BME280;10876;49.038;10.608;2022-09-09T09:23:04;98959.88;;;23.32;100.00
21431;BME280;10876;49.038;10.608;2022-09-09T09:25:35;98921.66;;;23.65;100.00
21431;BME280;10876;49.038;10.608;2022-09-09T09:28:13;98871.31;;;23.65;100.00
21431;BME280;10876;49.038;10.608;2022-09-09T09:30:45;98816.66;;;22.91;100.00
21431;BME280;10876;49.038;10.608;2022-09-09T09:33:18;98796.09;;;23.31;100.00
21431;BME280;10876;49.038;10.608;2022-09-09T09:35:48;98735.75;;;23.16;100.00
21431;BME280;10876;49.038;10.608;2022-09-09T09:38:17;98691.19;;;22.46;100.00
21431;BME280;10876;49.038;10.608;2022-09-09T09:40:50;98688.88;;;22.70;100.00
21431;BME280;10876;49.038;10.608;2022-09-09T09:43:23;98688.69;;;23.36;100.00
21431;BME280;10876;49.038;10.608;2022-09-09T09:45:51;98657.91;;;23.25;100.00
21431;BME280;10876;49.038;10.608;2022-09-09T09:48:17;98614.94;;;22.35;100.00
21431;BME280;10876;49.038;10.608;2022-09-09T09:50:49;98620.06;;;22.22;100.00
21431;BME280;10876;49.038;10.608;2022-09-09T09:53:21;98623.47;;;22.78;100.00
21431;BME280;10876;49.038;10.608;2022-09-09T09:55:55;98614.78;;;23.15;100.00
21431;BME280;10876;49.038;10.608;2022-09-09T09:58:23;98585.09;;;22.46;100.00
21431;BME280;10876;49.038;10.608;2022-09-09T10:00:52;98587.50;;;22.59;100.00
21431;BME280;10876;49.038;10.608;2022-09-09T10:03:25;98568.00;;;22.80;100.00
21431;BME280;10876;49.038;10.608;2022-09-09T10:05:53;98566.06;;;23.13;100.00
21431;BME280;10876;49.038;10.608;2022-09-09T10:08:21;98555.63;;;22.81;100.00
21431;BME280;10876;49.038;10.608;2022-09-09T10:10:59;98505.69;;;22.37;100.00
21431;BME280;10876;49.038;10.608;2022-09-09T10:13:36;98499.81;;;22.96;100.00
21431;BME280;10876;49.038;10.608;2022-09-09T10:16:17;98472.59;;;22.42;100.00
21431;BME280;10876;49.038;10.608;2022-09-09T10:18:57;98451.38;;;22.16;100.00
21431;BME280;10876;49.038;10.608;2022-09-09T10:21:43;98439.09;;;22.39;100.00
21431;BME280;10876;49.038;10.608;2022-09-09T10:24:26;98435.03;;;22.04;100.00
21431;BME280;10876;49.038;10.608;2022-09-09T10:27:04;98446.28;;;22.51;100.00
21431;BME280;10876;49.038;10.608;2022-09-09T10:29:47;98443.84;;;22.20;100.00
21431;BME280;10876;49.038;10.608;2022-09-09T10:32:33;98449.09;;;23.04;100.00
21431;BME280;10876;49.038;10.608;2022-09-09T10:35:08;98443.44;;;23.44;100.00
21431;BME280;10876;49.038;10.608;2022-09-09T10:37:49;98422.66;;;23.37;100.00
21431;BME280;10876;49.038;10.608;2022-09-09T10:40:33;98402.41;;;22.55;100.00
21431;BME280;10876;49.038;10.608;2022-09-09T10:43:20;98386.78;;;21.96;100.00
21431;BME280;10876;49.038;10.608;2022-09-09T10:45:59;98393.25;;;22.58;100.00
21431;BME280;10876;49.038;10.608;2022-09-09T10:48:44;98392.06;;;22.59;100.00
21431;BME280;10876;49.038;10.608;2022-09-09T10:51:28;98379.25;;;23.01;100.00
21431;BME280;10876;49.038;10.608;2022-09-09T10:54:11;98361.25;;;23.12;100.00
21431;BME280;10876;49.038;10.608;2022-09-09T10:56:42;98332.16;;;22.96;100.00
21431;BME280;10876;49.038;10.608;2022-09-09T10:59:16;98315.47;;;22.56;100.00
21431;BME280;10876;49.038;10.608;2022-09-09T11:01:49;98307.38;;;23.05;100.00
21431;BME280;10876;49.038;10.608;2022-09-09T11:04:22;98311.53;;;23.59;100.00
21431;BME280;10876;49.038;10.608;2022-09-09T11:06:53;98311.84;;;23.76;100.00
21431;BME280;10876;49.038;10.608;2022-09-09T11:09:23;98306.72;;;23.60;100.00
21431;BME280;10876;49.038;10.608;2022-09-09T11:11:53;98282.13;;;23.26;100.00
21431;BME280;10876;49.038;10.608;2022-09-09T11:14:28;98271.97;;;23.57;100.00
21431;BME280;10876;49.038;10.608;2022-09-09T11:16:59;98263.69;;;23.39;100.00
21431;BME280;10876;49.038;10.608;2022-09-09T11:19:30;98265.06;;;23.10;100.00
21431;BME280;10876;49.038;10.608;2022-09-09T11:22:00;98269.19;;;22.52;100.00
21431;BME280;10876;49.038;10.608;2022-09-09T11:24:33;98293.16;;;22.13;100.00
21431;BME280;10876;49.038;10.608;2022-09-09T11:27:06;98298.72;;;22.10;100.00
21431;BME280;10876;49.038;10.608;2022-09-09T11:30:21;98307.47;;;22.62;100.00
21431;BME280;10876;49.038;10.608;2022-09-09T11:36:03;98250.75;;;23.01;100.00
21431;BME280;10876;49.038;10.608;2022-09-09T11:38:41;98234.47;;;23.51;100.00
21431;BME280;10876;49.038;10.608;2022-09-09T11:41:11;98222.09;;;23.49;100.00
21431;BME280;10876;49.038;10.608;2022-09-09T11:43:40;98198.59;;;23.39;100.00
21431;BME280;10876;49.038;10.608;2022-09-09T11:46:10;98175.72;;;22.88;100.00
21431;BME280;10876;49.038;10.608;2022-09-09T11:48:40;98167.69;;;23.05;100.00
21431;BME280;10876;49.038;10.608;2022-09-09T11:51:12;98162.22;;;22.76;100.00
21431;BME280;10876;49.038;10.608;2022-09-09T11:53:50;98152.59;;;22.84;100.00
21431;BME280;10876;49.038;10.608;2022-09-09T11:56:26;98146.16;;;22.94;100.00
21431;BME280;10876;49.038;10.608;2022-09-09T11:58:56;98140.28;;;23.37;100.00
21431;BME280;10876;49.038;10.608;2022-09-09T12:01:43;98140.41;;;23.23;100.00
21431;BME280;10876;49.038;10.608;2022-09-09T12:04:31;98129.22;;;23.23;100.00
21431;BME280;10876;49.038;10.608;2022-09-09T12:07:00;98122.53;;;23.62;100.00
21431;BME280;10876;49.038;10.608;2022-09-09T12:09:33;98116.31;;;23.89;100.00
21431;BME280;10876;49.038;10.608;2022-09-09T12:12:16;98112.47;;;24.13;100.00
21431;BME280;10876;49.038;10.608;2022-09-09T12:14:56;98115.03;;;23.97;100.00
21431;BME280;10876;49.038;10.608;2022-09-09T12:17:27;98116.75;;;23.83;100.00
21431;BME280;10876;49.038;10.608;2022-09-09T12:20:12;98123.03;;;24.33;100.00
21431;BME280;10876;49.038;10.608;2022-09-09T12:22:59;98116.44;;;24.50;100.00
21431;BME280;10876;49.038;10.608;2022-09-09T12:25:36;98116.44;;;24.12;100.00
21431;BME280;10876;49.038;10.608;2022-09-09T12:28:11;98115.38;;;24.37;100.00
21431;BME280;10876;49.038;10.608;2022-09-09T12:30:48;98105.97;;;24.85;100.00
21431;BME280;10876;49.038;10.608;2022-09-09T12:33:18;98104.22;;;24.67;100.00
21431;BME280;10876;49.038;10.608;2022-09-09T12:35:49;98113.28;;;24.10;100.00
21431;BME280;10876;49.038;10.608;2022-09-09T12:38:24;98113.88;;;23.46;100.00
21431;BME280;10876;49.038;10.608;2022-09-09T12:40:55;98112.47;;;23.23;100.00
21431;BME280;10876;49.038;10.608;2022-09-09T12:43:24;98110.22;;;23.00;100.00
21431;BME280;10876;49.038;10.608;2022-09-09T12:45:54;98122.34;;;22.76;100.00
21431;BME280;10876;49.038;10.608;2022-09-09T12:48:29;98114.88;;;22.51;100.00
21431;BME280;10876;49.038;10.608;2022-09-09T12:50:58;98113.59;;;22.63;100.00
21431;BME280;10876;49.038;10.608;2022-09-09T12:53:28;98120.81;;;22.57;100.00
21431;BME280;10876;49.038;10.608;2022-09-09T12:55:57;98104.19;;;22.32;100.00
21431;BME280;10876;49.038;10.608;2022-09-09T12:58:25;98117.25;;;22.53;100.00
21431;BME280;10876;49.038;10.608;2022-09-09T13:00:55;98104.88;;;22.61;100.00
21431;BME280;10876;49.038;10.608;2022-09-09T13:03:23;98106.38;;;22.76;100.00
21431;BME280;10876;49.038;10.608;2022-09-09T13:05:53;98107.22;;;22.69;100.00
21431;BME280;10876;49.038;10.608;2022-09-09T13:08:20;98102.78;;;23.38;100.00
21431;BME280;10876;49.038;10.608;2022-09-09T13:10:49;98101.94;;;24.24;100.00
21431;BME280;10876;49.038;10.608;2022-09-09T13:13:22;98088.97;;;24.38;100.00
21431;BME280;10876;49.038;10.608;2022-09-09T13:15:51;98084.53;;;24.10;100.00
21431;BME280;10876;49.038;10.608;2022-09-09T13:18:22;98078.31;;;23.91;100.00
21431;BME280;10876;49.038;10.608;2022-09-09T13:20:51;98066.16;;;24.05;100.00
21431;BME280;10876;49.038;10.608;2022-09-09T13:23:19;98072.66;;;24.33;100.00
21431;BME280;10876;49.038;10.608;2022-09-09T13:25:57;98067.13;;;24.25;100.00
21431;BME280;10876;49.038;10.608;2022-09-09T13:28:25;98056.41;;;24.51;100.00
21431;BME280;10876;49.038;10.608;2022-09-09T13:30:59;98049.44;;;24.63;100.00
21431;BME280;10876;49.038;10.608;2022-09-09T13:33:31;98044.84;;;24.49;100.00
21431;BME280;10876;49.038;10.608;2022-09-09T13:36:01;98035.03;;;24.64;100.00
21431;BME280;10876;49.038;10.608;2022-09-09T13:38:32;98034.41;;;24.53;100.00
21431;BME280;10876;49.038;10.608;2022-09-09T13:41:01;98072.09;;;23.69;100.00
21431;BME280;10876;49.038;10.608;2022-09-09T13:43:30;98107.13;;;22.80;100.00
21431;BME280;10876;49.038;10.608;2022-09-09T13:45:59;98115.78;;;22.09;100.00
21431;BME280;10876;49.038;10.608;2022-09-09T13:48:26;98115.47;;;21.67;100.00
21431;BME280;10876;49.038;10.608;2022-09-09T13:51:01;98127.81;;;21.48;100.00
21431;BME280;10876;49.038;10.608;2022-09-09T13:53:30;98124.66;;;21.61;100.00
21431;BME280;10876;49.038;10.608;2022-09-09T13:55:58;98125.03;;;21.73;100.00
21431;BME280;10876;49.038;10.608;2022-09-09T13:58:26;98107.13;;;21.64;100.00
21431;BME280;10876;49.038;10.608;2022-09-09T14:00:53;98109.09;;;21.59;100.00
21431;BME280;10876;49.038;10.608;2022-09-09T14:03:20;98111.09;;;21.73;100.00
21431;BME280;10876;49.038;10.608;2022-09-09T14:05:48;98118.63;;;21.01;100.00
21431;BME280;10876;49.038;10.608;2022-09-09T14:08:22;98112.22;;;20.76;100.00
21431;BME280;10876;49.038;10.608;2022-09-09T14:10:50;98120.22;;;21.13;100.00
21431;BME280;10876;49.038;10.608;2022-09-09T14:13:17;98109.91;;;21.56;100.00
21431;BME280;10876;49.038;10.608;2022-09-09T14:15:44;98107.47;;;21.80;100.00
21431;BME280;10876;49.038;10.608;2022-09-09T14:18:11;98102.31;;;21.82;100.00
21431;BME280;10876;49.038;10.608;2022-09-09T14:20:39;98101.06;;;21.97;100.00
21431;BME280;10876;49.038;10.608;2022-09-09T14:23:10;98084.72;;;22.21;100.00
21431;BME280;10876;49.038;10.608;2022-09-09T14:25:41;98089.47;;;22.24;100.00
21431;BME280;10876;49.038;10.608;2022-09-09T14:28:10;98088.31;;;22.03;100.00
21431;BME280;10876;49.038;10.608;2022-09-09T14:30:40;98086.75;;;21.88;100.00
21431;BME280;10876;49.038;10.608;2022-09-09T14:33:07;98079.56;;;21.94;100.00
21431;BME280;10876;49.038;10.608;2022-09-09T14:35:34;98066.03;;;21.96;100.00
21431;BME280;10876;49.038;10.608;2022-09-09T14:38:02;98066.38;;;22.13;100.00
21431;BME280;10876;49.038;10.608;2022-09-09T14:40:28;98058.75;;;22.17;100.00
21431;BME280;10876;49.038;10.608;2022-09-09T14:42:57;98062.75;;;22.16;100.00
21431;BME280;10876;49.038;10.608;2022-09-09T14:45:24;98053.19;;;22.17;100.00
21431;BME280;10876;49.038;10.608;2022-09-09T14:47:52;98052.81;;;22.18;100.00
21431;BME280;10876;49.038;10.608;2022-09-09T14:50:19;98049.19;;;22.29;100.00
21431;BME280;10876;49.038;10.608;2022-09-09T14:52:46;98030.09;;;22.13;100.00
21431;BME280;10876;49.038;10.608;2022-09-09T14:55:13;98044.88;;;22.02;100.00
21431;BME280;10876;49.038;10.608;2022-09-09T14:57:40;98034.94;;;21.94;100.00
21431;BME280;10876;49.038;10.608;2022-09-09T15:00:10;98037.28;;;22.21;100.00
21431;BME280;10876;49.038;10.608;2022-09-09T15:02:37;98039.16;;;22.42;100.00
21431;BME280;10876;49.038;10.608;2022-09-09T15:05:05;98036.31;;;22.53;100.00
21431;BME280;10876;49.038;10.608;2022-09-09T15:07:32;98030.09;;;22.20;100.00
21431;BME280;10876;49.038;10.608;2022-09-09T15:09:59;98035.28;;;22.11;100.00
21431;BME280;10876;49.038;10.608;2022-09-09T15:12:26;98042.84;;;22.21;100.00
21431;BME280;10876;49.038;10.608;2022-09-09T15:14:53;98046.44;;;22.11;100.00
21431;BME280;10876;49.038;10.608;2022-09-09T15:17:22;98049.31;;;21.86;100.00
21431;BME280;10876;49.038;10.608;2022-09-09T15:19:53;98049.69;;;21.98;100.00
21431;BME280;10876;49.038;10.608;2022-09-09T15:22:20;98054.41;;;22.12;100.00
21431;BME280;10876;49.038;10.608;2022-09-09T15:24:47;98058.09;;;21.77;100.00
21431;BME280;10876;49.038;10.608;2022-09-09T15:27:14;98062.13;;;21.62;100.00
21431;BME280;10876;49.038;10.608;2022-09-09T15:29:41;98071.69;;;21.53;100.00
21431;BME280;10876;49.038;10.608;2022-09-09T15:32:09;98062.94;;;21.30;100.00
21431;BME280;10876;49.038;10.608;2022-09-09T15:34:38;98068.50;;;21.19;100.00
21431;BME280;10876;49.038;10.608;2022-09-09T15:37:05;98080.44;;;21.12;100.00
21431;BME280;10876;49.038;10.608;2022-09-09T15:39:33;98070.88;;;20.99;100.00
21431;BME280;10876;49.038;10.608;2022-09-09T15:42:00;98079.63;;;20.83;100.00
21431;BME280;10876;49.038;10.608;2022-09-09T15:44:27;98089.91;;;20.68;100.00
21431;BME280;10876;49.038;10.608;2022-09-09T15:46:54;98099.47;;;20.60;100.00
21431;BME280;10876;49.038;10.608;2022-09-09T15:49:22;98096.28;;;20.65;100.00
21431;BME280;10876;49.038;10.608;2022-09-09T15:51:53;98096.31;;;20.73;100.00
21431;BME280;10876;49.038;10.608;2022-09-09T15:54:22;98099.50;;;20.82;100.00
21431;BME280;10876;49.038;10.608;2022-09-09T15:56:53;98094.75;;;20.93;100.00
21431;BME280;10876;49.038;10.608;2022-09-09T15:59:21;98104.66;;;20.76;100.00
21431;BME280;10876;49.038;10.608;2022-09-09T16:01:50;98106.59;;;20.68;100.00
21431;BME280;10876;49.038;10.608;2022-09-09T16:04:17;98105.41;;;20.62;100.00
21431;BME280;10876;49.038;10.608;2022-09-09T16:06:51;98103.41;;;20.59;100.00
21431;BME280;10876;49.038;10.608;2022-09-09T16:09:20;98097.84;;;20.59;100.00
21431;BME280;10876;49.038;10.608;2022-09-09T16:11:46;98100.66;;;20.74;100.00